sensor_id;sensor_type;location;lat;lon;timestamp;temperature;humidity
18577;DHT22;9418;52.694;13.294;2022-09-17T00:02:16;11.50;33.40
18577;DHT22;9418;52.694;13.294;2022-09-17T00:04:43;11.50;33.20
18577;DHT22;9418;52.694;13.294;2022-09-17T00:07:10;11.50;34.00
18577;DHT22;9418;52.694;13.294;2022-09-17T00:09:36;11.50;33.30
18577;DHT22;9418;52.694;13.294;2022-09-17T00:12:05;11.50;32.90
18577;DHT22;9418;52.694;13.294;2022-09-17T00:14:31;11.50;32.80
18577;DHT22;9418;52.694;13.294;2022-09-17T00:16:58;11.50;33.20
18577;DHT22;9418;52.694;13.294;2022-09-17T00:19:25;11.50;32.80
18577;DHT22;9418;52.694;13.294;2022-09-17T00:21:51;11.50;32.60
18577;DHT22;9418;52.694;13.294;2022-09-17T00:24:19;11.60;32.90
18577;DHT22;9418;52.694;13.294;2022-09-17T00:26:46;11.60;32.20
18577;DHT22;9418;52.694;13.294;2022-09-17T00:29:14;11.60;32.10
18577;DHT22;9418;52.694;13.294;2022-09-17T00:31:40;11.60;32.20
18577;DHT22;9418;52.694;13.294;2022-09-17T00:34:07;11.50;32.80
18577;DHT22;9418;52.694;13.294;2022-09-17T00:36:35;11.60;32.70
18577;DHT22;9418;52.694;13.294;2022-09-17T00:39:04;11.60;32.50
18577;DHT22;9418;52.694;13.294;2022-09-17T00:41:34;11.60;32.80
18577;DHT22;9418;52.694;13.294;2022-09-17T00:44:45;11.60;31.50
18577;DHT22;9418;52.694;13.294;2022-09-17T00:47:22;11.60;32.10
18577;DHT22;9418;52.694;13.294;2022-09-17T00:49:52;11.50;31.60
18577;DHT22;9418;52.694;13.294;2022-09-17T00:52:24;11.60;32.30
18577;DHT22;9418;52.694;13.294;2022-09-17T00:54:54;11.50;32.00
18577;DHT22;9418;52.694;13.294;2022-09-17T00:57:23;11.60;32.00
18577;DHT22;9418;52.694;13.294;2022-09-17T00:59:51;11.60;31.80
18577;DHT22;9418;52.694;13.294;2022-09-17T01:02:19;11.60;32.60
18577;DHT22;9418;52.694;13.294;2022-09-17T01:04:46;11.60;32.10
18577;DHT22;9418;52.694;13.294;2022-09-17T01:07:18;11.60;31.30
18577;DHT22;9418;52.694;13.294;2022-09-17T01:09:49;11.60;33.10
18577;DHT22;9418;52.694;13.294;2022-09-17T01:12:34;11.60;32.30
18577;DHT22;9418;52.694;13.294;2022-09-17T01:15:14;11.60;32.90
18577;DHT22;9418;52.694;13.294;2022-09-17T01:17:52;11.60;32.60
18577;DHT22;9418;52.694;13.294;2022-09-17T01:20:39;11.60;33.70
18577;DHT22;9418;52.694;13.294;2022-09-17T01:23:26;11.60;32.00
18577;DHT22;9418;52.694;13.294;2022-09-17T01:26:05;11.60;32.70
18577;DHT22;9418;52.694;13.294;2022-09-17T01:28:41;11.60;33.50
18577;DHT22;9418;52.694;13.294;2022-09-17T01:31:32;11.60;33.60
18577;DHT22;9418;52.694;13.294;2022-09-17T01:34:06;11.60;33.50
18577;DHT22;9418;52.694;13.294;2022-09-17T01:36:49;11.60;34.20
18577;DHT22;9418;52.694;13.294;2022-09-17T01:39:27;11.60;33.70
18577;DHT22;9418;52.694;13.294;2022-09-17T01:42:01;11.60;33.60
18577;DHT22;9418;52.694;13.294;2022-09-17T01:44:35;11.60;34.00
18577;DHT22;9418;52.694;13.294;2022-09-17T01:47:09;11.60;34.90
18577;DHT22;9418;52.694;13.294;2022-09-17T01:49:38;11.60;34.70
18577;DHT22;9418;52.694;13.294;2022-09-17T01:52:07;11.60;35.80
18577;DHT22;9418;52.694;13.294;2022-09-17T01:54:36;11.60;35.70
18577;DHT22;9418;52.694;13.294;2022-09-17T01:57:05;11.60;35.50
18577;DHT22;9418;52.694;13.294;2022-09-17T01:59:37;11.70;35.00
18577;DHT22;9418;52.694;13.294;2022-09-17T02:02:11;11.60;35.00
18577;DHT22;9418;52.694;13.294;2022-09-17T02:04:43;11.70;34.90
18577;DHT22;9418;52.694;13.294;2022-09-17T02:07:15;11.70;33.60
18577;DHT22;9418;52.694;13.294;2022-09-17T02:09:48;11.70;34.60
18577;DHT22;9418;52.694;13.294;2022-09-17T02:12:21;11.70;34.80
18577;DHT22;9418;52.694;13.294;2022-09-17T02:14:51;11.70;34.30
18577;DHT22;9418;52.694;13.294;2022-09-17T02:17:24;11.70;34.90
18577;DHT22;9418;52.694;13.294;2022-09-17T02:19:53;11.70;33.20
18577;DHT22;9418;52.694;13.294;2022-09-17T02:22:23;11.70;32.50
18577;DHT22;9418;52.694;13.294;2022-09-17T02:24:59;11.70;33.40
18577;DHT22;9418;52.694;13.294;2022-09-17T02:27:37;11.70;31.20
18577;DHT22;9418;52.694;13.294;2022-09-17T02:30:08;11.70;29.20
18577;DHT22;9418;52.694;13.294;2022-09-17T02:32:36;11.70;28.30
18577;DHT22;9418;52.694;13.294;2022-09-17T02:35:03;11.70;29.20
18577;DHT22;9418;52.694;13.294;2022-09-17T02:37:31;11.70;28.50
18577;DHT22;9418;52.694;13.294;2022-09-17T02:39:57;11.70;27.00
18577;DHT22;9418;52.694;13.294;2022-09-17T02:42:31;11.70;27.70
18577;DHT22;9418;52.694;13.294;2022-09-17T02:45:04;11.70;26.60
18577;DHT22;9418;52.694;13.294;2022-09-17T02:50:40;11.70;25.90
18577;DHT22;9418;52.694;13.294;2022-09-17T02:53:20;11.70;26.70
18577;DHT22;9418;52.694;13.294;2022-09-17T02:55:58;11.70;25.10
18577;DHT22;9418;52.694;13.294;2022-09-17T02:58:31;11.70;24.70
18577;DHT22;9418;52.694;13.294;2022-09-17T03:01:03;11.70;24.00
18577;DHT22;9418;52.694;13.294;2022-09-17T03:03:36;11.70;23.70
18577;DHT22;9418;52.694;13.294;2022-09-17T03:06:05;11.60;23.40
18577;DHT22;9418;52.694;13.294;2022-09-17T03:08:34;11.70;23.10
18577;DHT22;9418;52.694;13.294;2022-09-17T03:11:01;11.60;22.30
18577;DHT22;9418;52.694;13.294;2022-09-17T03:13:29;11.60;22.80
18577;DHT22;9418;52.694;13.294;2022-09-17T03:15:56;11.60;22.30
18577;DHT22;9418;52.694;13.294;2022-09-17T03:18:22;11.70;21.80
18577;DHT22;9418;52.694;13.294;2022-09-17T03:20:50;11.70;21.00
18577;DHT22;9418;52.694;13.294;2022-09-17T03:23:17;11.70;20.40
18577;DHT22;9418;52.694;13.294;2022-09-17T03:25:45;11.70;74.50
18577;DHT22;9418;52.694;13.294;2022-09-17T03:28:13;11.70;74.90
18577;DHT22;9418;52.694;13.294;2022-09-17T03:30:40;11.70;88.30
18577;DHT22;9418;52.694;13.294;2022-09-17T03:33:06;11.70;72.10
18577;DHT22;9418;52.694;13.294;2022-09-17T03:35:33;11.70;75.70
18577;DHT22;9418;52.694;13.294;2022-09-17T03:38:01;11.70;78.80
18577;DHT22;9418;52.694;13.294;2022-09-17T03:40:27;11.70;81.20
18577;DHT22;9418;52.694;13.294;2022-09-17T03:42:54;11.70;84.30
18577;DHT22;9418;52.694;13.294;2022-09-17T03:45:20;11.70;90.00
18577;DHT22;9418;52.694;13.294;2022-09-17T03:47:47;11.70;87.40
18577;DHT22;9418;52.694;13.294;2022-09-17T03:50:14;11.70;90.00
18577;DHT22;9418;52.694;13.294;2022-09-17T03:52:41;11.70;89.50
18577;DHT22;9418;52.694;13.294;2022-09-17T03:55:10;11.70;91.10
18577;DHT22;9418;52.694;13.294;2022-09-17T03:57:36;11.70;93.50
18577;DHT22;9418;52.694;13.294;2022-09-17T04:00:04;11.70;88.30
18577;DHT22;9418;52.694;13.294;2022-09-17T04:02:31;11.70;86.50
18577;DHT22;9418;52.694;13.294;2022-09-17T04:04:57;11.70;91.70
18577;DHT22;9418;52.694;13.294;2022-09-17T04:07:24;11.70;91.10
18577;DHT22;9418;52.694;13.294;2022-09-17T04:09:51;11.70;97.80
18577;DHT22;9418;52.694;13.294;2022-09-17T04:12:19;11.70;99.90
18577;DHT22;9418;52.694;13.294;2022-09-17T04:14:45;11.70;99.90
18577;DHT22;9418;52.694;13.294;2022-09-17T04:17:12;11.80;99.90
18577;DHT22;9418;52.694;13.294;2022-09-17T04:19:42;11.70;99.90
18577;DHT22;9418;52.694;13.294;2022-09-17T04:22:09;11.80;99.90
18577;DHT22;9418;52.694;13.294;2022-09-17T04:24:35;11.70;99.90
18577;DHT22;9418;52.694;13.294;2022-09-17T04:27:02;11.70;99.90
18577;DHT22;9418;52.694;13.294;2022-09-17T04:29:30;11.80;99.90
18577;DHT22;9418;52.694;13.294;2022-09-17T04:31:56;11.80;99.90
18577;DHT22;9418;52.694;13.294;2022-09-17T04:34:23;11.70;99.90
18577;DHT22;9418;52.694;13.294;2022-09-17T04:36:49;11.70;98.80
18577;DHT22;9418;52.694;13.294;2022-09-17T04:39:16;11.70;99.90
18577;DHT22;9418;52.694;13.294;2022-09-17T04:41:43;11.80;99.90
18577;DHT22;9418;52.694;13.294;2022-09-17T04:44:09;11.80;99.90
18577;DHT22;9418;52.694;13.294;2022-09-17T04:46:37;11.80;99.90
18577;DHT22;9418;52.694;13.294;2022-09-17T04:49:04;11.80;99.90
18577;DHT22;9418;52.694;13.294;2022-09-17T04:51:30;11.80;99.90
18577;DHT22;9418;52.694;13.294;2022-09-17T04:53:57;11.80;99.90
18577;DHT22;9418;52.694;13.294;2022-09-17T04:56:23;11.80;99.90
18577;DHT22;9418;52.694;13.294;2022-09-17T04:58:50;11.80;99.90
18577;DHT22;9418;52.694;13.294;2022-09-17T05:01:17;11.80;99.90
18577;DHT22;9418;52.694;13.294;2022-09-17T05:03:45;11.80;99.90
18577;DHT22;9418;52.694;13.294;2022-09-17T05:06:12;11.80;99.90
18577;DHT22;9418;52.694;13.294;2022-09-17T05:08:38;11.80;99.90
18577;DHT22;9418;52.694;13.294;2022-09-17T05:11:05;11.80;99.90
18577;DHT22;9418;52.694;13.294;2022-09-17T05:13:31;11.80;99.90
18577;DHT22;9418;52.694;13.294;2022-09-17T05:15:58;11.80;99.90
18577;DHT22;9418;52.694;13.294;2022-09-17T05:18:24;11.80;99.90
18577;DHT22;9418;52.694;13.294;2022-09-17T05:20:52;11.80;99.90
18577;DHT22;9418;52.694;13.294;2022-09-17T05:23:19;11.80;99.90
18577;DHT22;9418;52.694;13.294;2022-09-17T05:25:46;11.80;99.90
18577;DHT22;9418;52.694;13.294;2022-09-17T05:28:13;11.80;99.90
18577;DHT22;9418;52.694;13.294;2022-09-17T05:30:39;11.80;99.90
18577;DHT22;9418;52.694;13.294;2022-09-17T05:33:07;11.80;95.80
18577;DHT22;9418;52.694;13.294;2022-09-17T05:35:34;11.80;99.90
18577;DHT22;9418;52.694;13.294;2022-09-17T05:38:04;11.80;99.90
18577;DHT22;9418;52.694;13.294;2022-09-17T05:40:32;11.80;99.90
18577;DHT22;9418;52.694;13.294;2022-09-17T05:42:59;11.90;99.90
18577;DHT22;9418;52.694;13.294;2022-09-17T05:45:26;11.90;99.90
18577;DHT22;9418;52.694;13.294;2022-09-17T05:47:56;11.90;99.90
18577;DHT22;9418;52.694;13.294;2022-09-17T05:50:23;11.90;99.90
18577;DHT22;9418;52.694;13.294;2022-09-17T05:52:50;11.90;99.90
18577;DHT22;9418;52.694;13.294;2022-09-17T05:55:19;11.90;99.90
18577;DHT22;9418;52.694;13.294;2022-09-17T05:57:47;11.90;99.90
18577;DHT22;9418;52.694;13.294;2022-09-17T06:00:14;11.90;99.90
18577;DHT22;9418;52.694;13.294;2022-09-17T06:02:41;12.00;99.90
18577;DHT22;9418;52.694;13.294;2022-09-17T06:05:08;12.00;99.90
18577;DHT22;9418;52.694;13.294;2022-09-17T06:07:35;12.00;99.20
18577;DHT22;9418;52.694;13.294;2022-09-17T06:10:03;12.00;93.10
18577;DHT22;9418;52.694;13.294;2022-09-17T06:12:31;12.00;79.70
18577;DHT22;9418;52.694;13.294;2022-09-17T06:14:59;12.00;78.10
18577;DHT22;9418;52.694;13.294;2022-09-17T06:17:26;12.00;81.80
18577;DHT22;9418;52.694;13.294;2022-09-17T06:19:53;12.00;21.90
18577;DHT22;9418;52.694;13.294;2022-09-17T06:22:19;12.10;23.90
18577;DHT22;9418;52.694;13.294;2022-09-17T06:24:47;12.10;26.10
18577;DHT22;9418;52.694;13.294;2022-09-17T06:27:13;12.20;25.80
18577;DHT22;9418;52.694;13.294;2022-09-17T06:29:41;12.30;27.40
18577;DHT22;9418;52.694;13.294;2022-09-17T06:32:08;12.30;37.70
18577;DHT22;9418;52.694;13.294;2022-09-17T06:34:37;12.40;34.50
18577;DHT22;9418;52.694;13.294;2022-09-17T06:37:04;12.40;35.40
18577;DHT22;9418;52.694;13.294;2022-09-17T06:39:31;12.40;37.70
18577;DHT22;9418;52.694;13.294;2022-09-17T06:41:57;12.40;41.50
18577;DHT22;9418;52.694;13.294;2022-09-17T06:44:24;12.30;45.40
18577;DHT22;9418;52.694;13.294;2022-09-17T06:46:52;12.30;54.20
18577;DHT22;9418;52.694;13.294;2022-09-17T06:49:18;12.20;61.60
18577;DHT22;9418;52.694;13.294;2022-09-17T06:51:45;12.20;66.00
18577;DHT22;9418;52.694;13.294;2022-09-17T06:54:11;12.20;69.10
18577;DHT22;9418;52.694;13.294;2022-09-17T06:56:38;12.20;74.20
18577;DHT22;9418;52.694;13.294;2022-09-17T06:59:05;12.20;77.80
18577;DHT22;9418;52.694;13.294;2022-09-17T07:01:31;12.20;92.20
18577;DHT22;9418;52.694;13.294;2022-09-17T07:03:59;12.20;91.00
18577;DHT22;9418;52.694;13.294;2022-09-17T07:06:26;12.20;92.50
18577;DHT22;9418;52.694;13.294;2022-09-17T07:08:52;12.20;91.40
18577;DHT22;9418;52.694;13.294;2022-09-17T07:11:19;12.20;93.20
18577;DHT22;9418;52.694;13.294;2022-09-17T07:13:46;12.20;96.70
18577;DHT22;9418;52.694;13.294;2022-09-17T07:16:12;12.30;96.80
18577;DHT22;9418;52.694;13.294;2022-09-17T07:18:39;12.30;98.40
18577;DHT22;9418;52.694;13.294;2022-09-17T07:21:08;12.30;99.90
18577;DHT22;9418;52.694;13.294;2022-09-17T07:23:36;12.30;99.90
18577;DHT22;9418;52.694;13.294;2022-09-17T07:26:04;12.30;99.90
18577;DHT22;9418;52.694;13.294;2022-09-17T07:28:32;12.30;99.90
18577;DHT22;9418;52.694;13.294;2022-09-17T07:31:02;12.30;99.90
18577;DHT22;9418;52.694;13.294;2022-09-17T07:33:28;12.30;99.90
18577;DHT22;9418;52.694;13.294;2022-09-17T07:35:56;12.30;99.90
18577;DHT22;9418;52.694;13.294;2022-09-17T07:38:25;12.30;99.90
18577;DHT22;9418;52.694;13.294;2022-09-17T07:40:57;12.30;99.90
18577;DHT22;9418;52.694;13.294;2022-09-17T07:43:24;12.30;99.90
18577;DHT22;9418;52.694;13.294;2022-09-17T07:45:51;12.30;99.90
18577;DHT22;9418;52.694;13.294;2022-09-17T07:48:18;12.20;99.90
18577;DHT22;9418;52.694;13.294;2022-09-17T07:50:45;12.20;99.90
18577;DHT22;9418;52.694;13.294;2022-09-17T07:53:12;12.20;99.90
18577;DHT22;9418;52.694;13.294;2022-09-17T07:55:40;12.20;99.90
18577;DHT22;9418;52.694;13.294;2022-09-17T07:58:07;12.20;99.90
18577;DHT22;9418;52.694;13.294;2022-09-17T08:00:33;12.20;99.90
18577;DHT22;9418;52.694;13.294;2022-09-17T08:03:00;12.20;99.90
18577;DHT22;9418;52.694;13.294;2022-09-17T08:05:27;12.20;99.90
18577;DHT22;9418;52.694;13.294;2022-09-17T08:07:54;12.30;99.90
18577;DHT22;9418;52.694;13.294;2022-09-17T08:10:22;12.30;99.90
18577;DHT22;9418;52.694;13.294;2022-09-17T08:12:54;12.30;99.90
18577;DHT22;9418;52.694;13.294;2022-09-17T08:15:21;12.40;99.90
18577;DHT22;9418;52.694;13.294;2022-09-17T08:17:48;12.40;99.90
18577;DHT22;9418;52.694;13.294;2022-09-17T08:20:15;12.50;99.90
18577;DHT22;9418;52.694;13.294;2022-09-17T08:22:42;12.50;99.90
18577;DHT22;9418;52.694;13.294;2022-09-17T08:25:09;12.60;99.90
18577;DHT22;9418;52.694;13.294;2022-09-17T08:27:42;12.60;29.00
18577;DHT22;9418;52.694;13.294;2022-09-17T08:30:32;12.70;54.40
18577;DHT22;9418;52.694;13.294;2022-09-17T08:32:59;12.90;43.90
18577;DHT22;9418;52.694;13.294;2022-09-17T08:35:25;13.10;40.90
18577;DHT22;9418;52.694;13.294;2022-09-17T08:37:53;13.20;64.00
18577;DHT22;9418;52.694;13.294;2022-09-17T08:40:21;13.20;88.10
18577;DHT22;9418;52.694;13.294;2022-09-17T08:42:51;13.30;99.90
18577;DHT22;9418;52.694;13.294;2022-09-17T08:45:23;13.50;99.90
18577;DHT22;9418;52.694;13.294;2022-09-17T08:47:53;13.60;99.90
18577;DHT22;9418;52.694;13.294;2022-09-17T08:50:26;13.80;99.90
18577;DHT22;9418;52.694;13.294;2022-09-17T08:53:08;13.90;99.90
18577;DHT22;9418;52.694;13.294;2022-09-17T08:55:42;14.10;99.90
18577;DHT22;9418;52.694;13.294;2022-09-17T08:58:28;14.20;99.90
18577;DHT22;9418;52.694;13.294;2022-09-17T09:01:06;14.20;99.90
18577;DHT22;9418;52.694;13.294;2022-09-17T09:03:47;14.30;99.90
18577;DHT22;9418;52.694;13.294;2022-09-17T09:06:21;14.20;99.90
18577;DHT22;9418;52.694;13.294;2022-09-17T09:08:56;14.30;99.90
18577;DHT22;9418;52.694;13.294;2022-09-17T09:11:28;14.30;99.90
18577;DHT22;9418;52.694;13.294;2022-09-17T09:14:00;14.40;99.90
18577;DHT22;9418;52.694;13.294;2022-09-17T09:16:31;14.30;99.90
18577;DHT22;9418;52.694;13.294;2022-09-17T09:19:13;14.50;99.90
18577;DHT22;9418;52.694;13.294;2022-09-17T09:21:48;14.60;99.90
18577;DHT22;9418;52.694;13.294;2022-09-17T09:24:22;14.70;99.90
18577;DHT22;9418;52.694;13.294;2022-09-17T09:26:56;14.90;99.90
18577;DHT22;9418;52.694;13.294;2022-09-17T09:29:35;14.90;91.20
18577;DHT22;9418;52.694;13.294;2022-09-17T09:32:16;15.10;42.70
18577;DHT22;9418;52.694;13.294;2022-09-17T09:34:45;15.20;22.80
18577;DHT22;9418;52.694;13.294;2022-09-17T09:37:17;15.10;26.40
18577;DHT22;9418;52.694;13.294;2022-09-17T09:39:46;15.00;36.60
18577;DHT22;9418;52.694;13.294;2022-09-17T09:42:18;15.10;43.20
18577;DHT22;9418;52.694;13.294;2022-09-17T09:44:48;14.90;32.10
18577;DHT22;9418;52.694;13.294;2022-09-17T09:47:28;14.80;91.40
18577;DHT22;9418;52.694;13.294;2022-09-17T09:50:14;14.70;99.90
18577;DHT22;9418;52.694;13.294;2022-09-17T09:52:54;14.60;99.90
18577;DHT22;9418;52.694;13.294;2022-09-17T09:55:52;14.50;99.90
18577;DHT22;9418;52.694;13.294;2022-09-17T09:58:26;14.30;99.90
18577;DHT22;9418;52.694;13.294;2022-09-17T10:00:55;14.10;99.90
18577;DHT22;9418;52.694;13.294;2022-09-17T10:03:24;13.90;99.90
18577;DHT22;9418;52.694;13.294;2022-09-17T10:05:56;13.90;99.90
18577;DHT22;9418;52.694;13.294;2022-09-17T10:08:23;13.90;99.90
18577;DHT22;9418;52.694;13.294;2022-09-17T10:10:58;13.90;99.90
18577;DHT22;9418;52.694;13.294;2022-09-17T10:13:27;14.10;99.90
18577;DHT22;9418;52.694;13.294;2022-09-17T10:15:54;14.20;99.90
18577;DHT22;9418;52.694;13.294;2022-09-17T10:18:22;14.40;99.90
18577;DHT22;9418;52.694;13.294;2022-09-17T10:20:55;14.40;99.90
18577;DHT22;9418;52.694;13.294;2022-09-17T10:23:25;14.60;99.90
18577;DHT22;9418;52.694;13.294;2022-09-17T10:25:52;14.70;99.90
18577;DHT22;9418;52.694;13.294;2022-09-17T10:28:43;14.60;99.90
18577;DHT22;9418;52.694;13.294;2022-09-17T10:31:12;14.40;99.90
18577;DHT22;9418;52.694;13.294;2022-09-17T10:33:49;14.30;99.90
18577;DHT22;9418;52.694;13.294;2022-09-17T10:36:35;14.00;99.90
18577;DHT22;9418;52.694;13.294;2022-09-17T10:39:18;13.90;99.90
18577;DHT22;9418;52.694;13.294;2022-09-17T10:41:53;13.70;99.90
18577;DHT22;9418;52.694;13.294;2022-09-17T10:44:21;13.70;99.90
18577;DHT22;9418;52.694;13.294;2022-09-17T10:46:48;13.70;99.90
18577;DHT22;9418;52.694;13.294;2022-09-17T10:49:27;13.70;99.90
18577;DHT22;9418;52.694;13.294;2022-09-17T10:52:12;13.80;99.90
18577;DHT22;9418;52.694;13.294;2022-09-17T10:55:07;13.90;99.90
18577;DHT22;9418;52.694;13.294;2022-09-17T10:58:08;14.20;99.90
18577;DHT22;9418;52.694;13.294;2022-09-17T11:00:45;14.50;99.90
18577;DHT22;9418;52.694;13.294;2022-09-17T11:03:31;14.60;99.90
18577;DHT22;9418;52.694;13.294;2022-09-17T11:06:13;14.50;99.90
18577;DHT22;9418;52.694;13.294;2022-09-17T11:08:51;14.40;21.70
18577;DHT22;9418;52.694;13.294;2022-09-17T11:11:31;14.30;99.90
18577;DHT22;9418;52.694;13.294;2022-09-17T11:14:06;14.20;99.90
18577;DHT22;9418;52.694;13.294;2022-09-17T11:16:39;14.20;99.90
18577;DHT22;9418;52.694;13.294;2022-09-17T11:19:18;14.10;99.90
18577;DHT22;9418;52.694;13.294;2022-09-17T11:21:52;14.20;99.90
18577;DHT22;9418;52.694;13.294;2022-09-17T11:24:48;14.40;99.90
18577;DHT22;9418;52.694;13.294;2022-09-17T11:27:33;14.50;99.90
18577;DHT22;9418;52.694;13.294;2022-09-17T11:30:15;14.60;99.90
18577;DHT22;9418;52.694;13.294;2022-09-17T11:32:59;14.50;38.50
18577;DHT22;9418;52.694;13.294;2022-09-17T11:35:31;14.50;32.50
18577;DHT22;9418;52.694;13.294;2022-09-17T11:38:02;14.50;55.40
18577;DHT22;9418;52.694;13.294;2022-09-17T11:40:36;14.50;45.60
18577;DHT22;9418;52.694;13.294;2022-09-17T11:43:13;14.50;34.00
18577;DHT22;9418;52.694;13.294;2022-09-17T11:45:50;14.50;28.30
18577;DHT22;9418;52.694;13.294;2022-09-17T11:48:24;14.60;76.60
18577;DHT22;9418;52.694;13.294;2022-09-17T11:50:57;14.80;26.30
18577;DHT22;9418;52.694;13.294;2022-09-17T11:53:29;15.00;71.90
18577;DHT22;9418;52.694;13.294;2022-09-17T11:56:01;15.00;61.20
18577;DHT22;9418;52.694;13.294;2022-09-17T11:58:37;15.10;69.80
18577;DHT22;9418;52.694;13.294;2022-09-17T12:01:08;15.20;71.50
18577;DHT22;9418;52.694;13.294;2022-09-17T12:03:39;15.30;52.00
18577;DHT22;9418;52.694;13.294;2022-09-17T12:06:10;15.40;82.40
18577;DHT22;9418;52.694;13.294;2022-09-17T12:08:43;15.40;81.50
18577;DHT22;9418;52.694;13.294;2022-09-17T12:11:16;15.40;91.60
18577;DHT22;9418;52.694;13.294;2022-09-17T12:13:46;15.40;70.80
18577;DHT22;9418;52.694;13.294;2022-09-17T12:16:19;15.00;85.10
18577;DHT22;9418;52.694;13.294;2022-09-17T12:18:56;14.80;87.90
18577;DHT22;9418;52.694;13.294;2022-09-17T12:21:29;14.50;94.60
18577;DHT22;9418;52.694;13.294;2022-09-17T12:24:04;14.20;86.20
18577;DHT22;9418;52.694;13.294;2022-09-17T12:26:48;14.10;55.80
18577;DHT22;9418;52.694;13.294;2022-09-17T12:29:27;14.10;46.60
18577;DHT22;9418;52.694;13.294;2022-09-17T12:31:59;14.20;47.90
18577;DHT22;9418;52.694;13.294;2022-09-17T12:34:40;14.40;47.80
18577;DHT22;9418;52.694;13.294;2022-09-17T12:37:12;14.50;51.00
18577;DHT22;9418;52.694;13.294;2022-09-17T12:40:10;14.50;55.50
18577;DHT22;9418;52.694;13.294;2022-09-17T12:42:54;14.50;44.00
18577;DHT22;9418;52.694;13.294;2022-09-17T12:45:37;14.60;36.00
18577;DHT22;9418;52.694;13.294;2022-09-17T12:48:22;14.70;36.20
18577;DHT22;9418;52.694;13.294;2022-09-17T12:51:05;14.90;37.80
18577;DHT22;9418;52.694;13.294;2022-09-17T12:53:42;15.00;30.50
18577;DHT22;9418;52.694;13.294;2022-09-17T12:56:21;15.30;46.80
18577;DHT22;9418;52.694;13.294;2022-09-17T12:59:01;15.50;67.70
18577;DHT22;9418;52.694;13.294;2022-09-17T13:01:33;15.50;77.40
18577;DHT22;9418;52.694;13.294;2022-09-17T13:04:10;15.40;99.50
18577;DHT22;9418;52.694;13.294;2022-09-17T13:07:08;15.20;99.90
18577;DHT22;9418;52.694;13.294;2022-09-17T13:10:02;15.00;99.90
18577;DHT22;9418;52.694;13.294;2022-09-17T13:12:31;15.10;96.10
18577;DHT22;9418;52.694;13.294;2022-09-17T13:15:32;15.10;95.30
18577;DHT22;9418;52.694;13.294;2022-09-17T13:18:05;15.00;90.00
18577;DHT22;9418;52.694;13.294;2022-09-17T13:20:38;14.90;94.90
18577;DHT22;9418;52.694;13.294;2022-09-17T13:23:06;14.90;88.70
18577;DHT22;9418;52.694;13.294;2022-09-17T13:25:48;14.80;97.70
18577;DHT22;9418;52.694;13.294;2022-09-17T13:28:16;14.80;99.90
18577;DHT22;9418;52.694;13.294;2022-09-17T13:30:59;15.00;98.80
18577;DHT22;9418;52.694;13.294;2022-09-17T13:33:48;15.30;99.90
18577;DHT22;9418;52.694;13.294;2022-09-17T13:36:38;15.60;99.90
18577;DHT22;9418;52.694;13.294;2022-09-17T13:39:07;15.90;99.90
18577;DHT22;9418;52.694;13.294;2022-09-17T13:41:36;16.10;99.90
18577;DHT22;9418;52.694;13.294;2022-09-17T13:44:04;16.20;99.90
18577;DHT22;9418;52.694;13.294;2022-09-17T13:46:34;16.20;99.90
18577;DHT22;9418;52.694;13.294;2022-09-17T13:49:05;16.30;99.90
18577;DHT22;9418;52.694;13.294;2022-09-17T13:51:50;16.30;99.90
18577;DHT22;9418;52.694;13.294;2022-09-17T13:54:20;16.10;99.90
18577;DHT22;9418;52.694;13.294;2022-09-17T13:57:01;16.10;99.90
18577;DHT22;9418;52.694;13.294;2022-09-17T13:59:31;16.00;99.90
18577;DHT22;9418;52.694;13.294;2022-09-17T14:02:27;15.90;99.90
18577;DHT22;9418;52.694;13.294;2022-09-17T14:04:55;15.90;99.90
18577;DHT22;9418;52.694;13.294;2022-09-17T14:07:33;15.90;99.90
18577;DHT22;9418;52.694;13.294;2022-09-17T14:12:54;15.80;99.90
18577;DHT22;9418;52.694;13.294;2022-09-17T14:15:54;15.70;99.90
18577;DHT22;9418;52.694;13.294;2022-09-17T14:18:37;15.70;99.90
18577;DHT22;9418;52.694;13.294;2022-09-17T14:21:09;15.70;99.90
18577;DHT22;9418;52.694;13.294;2022-09-17T14:23:42;15.60;99.90
18577;DHT22;9418;52.694;13.294;2022-09-17T14:26:14;15.50;99.90
18577;DHT22;9418;52.694;13.294;2022-09-17T14:28:47;15.20;99.90
18577;DHT22;9418;52.694;13.294;2022-09-17T14:31:17;14.90;99.90
18577;DHT22;9418;52.694;13.294;2022-09-17T14:33:48;14.90;82.10
18577;DHT22;9418;52.694;13.294;2022-09-17T14:36:17;14.60;67.70
18577;DHT22;9418;52.694;13.294;2022-09-17T14:38:47;14.80;87.20
18577;DHT22;9418;52.694;13.294;2022-09-17T14:41:19;14.80;98.20
18577;DHT22;9418;52.694;13.294;2022-09-17T14:43:50;14.90;98.30
18577;DHT22;9418;52.694;13.294;2022-09-17T14:46:20;14.90;99.90
18577;DHT22;9418;52.694;13.294;2022-09-17T14:48:48;15.00;99.90
18577;DHT22;9418;52.694;13.294;2022-09-17T14:51:28;15.10;99.90
18577;DHT22;9418;52.694;13.294;2022-09-17T14:54:14;15.00;99.90
18577;DHT22;9418;52.694;13.294;2022-09-17T14:56:47;14.90;99.90
18577;DHT22;9418;52.694;13.294;2022-09-17T14:59:21;14.70;99.90
18577;DHT22;9418;52.694;13.294;2022-09-17T15:01:49;14.50;99.90
18577;DHT22;9418;52.694;13.294;2022-09-17T15:04:24;14.40;99.90
18577;DHT22;9418;52.694;13.294;2022-09-17T15:06:52;14.20;99.90
18577;DHT22;9418;52.694;13.294;2022-09-17T15:09:22;14.20;99.90
18577;DHT22;9418;52.694;13.294;2022-09-17T15:11:52;14.10;99.90
18577;DHT22;9418;52.694;13.294;2022-09-17T15:14:21;14.00;99.90
18577;DHT22;9418;52.694;13.294;2022-09-17T15:16:51;13.90;99.90
18577;DHT22;9418;52.694;13.294;2022-09-17T15:19:23;13.90;99.20
18577;DHT22;9418;52.694;13.294;2022-09-17T15:21:54;13.80;95.70
18577;DHT22;9418;52.694;13.294;2022-09-17T15:24:31;13.60;96.20
18577;DHT22;9418;52.694;13.294;2022-09-17T15:27:03;13.60;95.00
18577;DHT22;9418;52.694;13.294;2022-09-17T15:29:33;13.50;98.70
18577;DHT22;9418;52.694;13.294;2022-09-17T15:32:02;13.60;95.30
18577;DHT22;9418;52.694;13.294;2022-09-17T15:34:31;13.60;99.90
18577;DHT22;9418;52.694;13.294;2022-09-17T15:37:04;13.60;99.90
18577;DHT22;9418;52.694;13.294;2022-09-17T15:39:37;13.70;99.90
18577;DHT22;9418;52.694;13.294;2022-09-17T15:42:04;13.70;99.90
18577;DHT22;9418;52.694;13.294;2022-09-17T15:44:31;13.70;99.90
18577;DHT22;9418;52.694;13.294;2022-09-17T15:47:35;13.70;99.90
18577;DHT22;9418;52.694;13.294;2022-09-17T15:50:13;13.60;99.90
18577;DHT22;9418;52.694;13.294;2022-09-17T15:52:40;13.50;99.90
18577;DHT22;9418;52.694;13.294;2022-09-17T15:55:25;13.40;99.90
18577;DHT22;9418;52.694;13.294;2022-09-17T15:57:53;13.30;99.90
18577;DHT22;9418;52.694;13.294;2022-09-17T16:00:20;13.30;99.90
18577;DHT22;9418;52.694;13.294;2022-09-17T16:02:47;13.20;99.90
18577;DHT22;9418;52.694;13.294;2022-09-17T16:05:48;13.10;99.90
18577;DHT22;9418;52.694;13.294;2022-09-17T16:08:21;12.90;99.90